createdAt,value
2023-02-25T00:01:07.320Z,100.00
2023-02-25T00:03:34.476Z,100.00
2023-02-25T00:06:05.744Z,100.00
2023-02-25T00:08:36.134Z,100.00
2023-02-25T00:11:04.028Z,100.00
2023-02-25T00:13:31.007Z,100.00
2023-02-25T00:16:00.936Z,100.00
2023-02-25T00:18:28.065Z,100.00
2023-02-25T00:20:55.058Z,100.00
2023-02-25T00:23:22.111Z,100.00
2023-02-25T00:25:48.711Z,100.00
2023-02-25T00:28:15.775Z,100.00
2023-02-25T00:30:45.406Z,100.00
2023-02-25T00:33:12.392Z,100.00
2023-02-25T00:35:39.810Z,100.00
2023-02-25T00:38:15.853Z,100.00
2023-02-25T00:40:43.301Z,100.00
2023-02-25T00:43:10.166Z,100.00
2023-02-25T00:45:39.737Z,100.00
2023-02-25T00:48:07.220Z,100.00
2023-02-25T00:50:34.403Z,100.00
2023-02-25T00:53:01.180Z,100.00
2023-02-25T00:55:33.767Z,100.00
2023-02-25T00:58:01.374Z,100.00
2023-02-25T01:00:28.582Z,100.00
2023-02-25T01:02:56.484Z,100.00
2023-02-25T01:05:23.190Z,100.00
2023-02-25T01:07:50.187Z,100.00
2023-02-25T01:10:17.274Z,100.00
2023-02-25T01:12:44.305Z,100.00
2023-02-25T01:15:11.379Z,100.00
2023-02-25T01:17:38.212Z,100.00
2023-02-25T01:20:11.460Z,100.00
2023-02-25T01:22:41.828Z,100.00
2023-02-25T01:25:12.111Z,100.00
2023-02-25T01:27:38.685Z,100.00
2023-02-25T01:30:06.324Z,100.00
2023-02-25T01:32:33.327Z,100.00
2023-02-25T01:35:00.254Z,100.00
2023-02-25T01:37:27.016Z,100.00
2023-02-25T01:39:54.508Z,100.00
2023-02-25T01:42:21.360Z,100.00
2023-02-25T01:45:06.864Z,100.00
2023-02-25T01:47:34.717Z,100.00
2023-02-25T01:50:02.459Z,100.00
2023-02-25T01:52:29.396Z,100.00
2023-02-25T01:54:56.480Z,100.00
2023-02-25T01:57:23.932Z,100.00
2023-02-25T01:59:50.967Z,100.00
2023-02-25T02:02:19.713Z,100.00
2023-02-25T02:04:50.270Z,100.00
2023-02-25T02:07:17.522Z,100.00
2023-02-25T02:09:56.196Z,100.00
2023-02-25T02:12:25.473Z,100.00
2023-02-25T02:14:52.211Z,100.00
2023-02-25T02:17:21.074Z,100.00
2023-02-25T02:19:53.666Z,100.00
2023-02-25T02:22:29.474Z,100.00
2023-02-25T02:24:59.531Z,100.00
2023-02-25T02:27:29.339Z,100.00
2023-02-25T02:30:00.938Z,100.00
2023-02-25T02:32:46.390Z,100.00
2023-02-25T02:35:13.143Z,100.00
2023-02-25T02:37:49.024Z,100.00
2023-02-25T02:40:15.691Z,100.00
2023-02-25T02:42:45.346Z,100.00
2023-02-25T02:45:14.090Z,100.00
2023-02-25T02:47:41.322Z,100.00
2023-02-25T02:50:09.436Z,100.00
2023-02-25T02:52:38.656Z,100.00
2023-02-25T02:55:08.507Z,100.00
2023-02-25T02:57:35.643Z,100.00
2023-02-25T03:00:17.993Z,100.00
2023-02-25T03:02:45.631Z,100.00
2023-02-25T03:05:12.933Z,100.00
2023-02-25T03:07:43.965Z,100.00
2023-02-25T03:10:11.555Z,100.00
2023-02-25T03:12:39.045Z,100.00
2023-02-25T03:15:06.204Z,100.00
2023-02-25T03:17:43.436Z,100.00
2023-02-25T03:20:21.518Z,100.00
2023-02-25T03:22:48.776Z,100.00
2023-02-25T03:25:15.420Z,100.00
2023-02-25T03:27:42.527Z,100.00
2023-02-25T03:30:12.790Z,100.00
2023-02-25T03:32:43.966Z,100.00
2023-02-25T03:35:11.271Z,100.00
2023-02-25T03:37:38.853Z,100.00
2023-02-25T03:40:11.580Z,100.00
2023-02-25T03:42:39.355Z,100.00
2023-02-25T03:45:06.210Z,100.00
2023-02-25T03:47:34.587Z,100.00
2023-02-25T03:50:03.309Z,100.00
2023-02-25T03:52:30.012Z,100.00
2023-02-25T03:54:57.639Z,100.00
2023-02-25T03:57:25.455Z,100.00
2023-02-25T03:59:56.356Z,100.00
2023-02-25T04:02:27.539Z,100.00
2023-02-25T04:04:54.410Z,100.00
2023-02-25T04:07:21.388Z,100.00
2023-02-25T04:09:47.928Z,100.00
2023-02-25T04:12:15.688Z,100.00
2023-02-25T04:14:42.307Z,100.00
2023-02-25T04:17:08.899Z,100.00
2023-02-25T04:19:35.533Z,100.00
2023-02-25T04:22:02.133Z,100.00
2023-02-25T04:24:28.762Z,100.00
2023-02-25T04:26:58.563Z,100.00
2023-02-25T04:29:25.596Z,100.00
2023-02-25T04:31:52.564Z,100.00
2023-02-25T04:34:19.630Z,100.00
2023-02-25T04:36:47.015Z,100.00
2023-02-25T04:39:14.558Z,100.00
2023-02-25T04:41:41.127Z,100.00
2023-02-25T04:44:07.986Z,100.00
2023-02-25T04:46:35.883Z,100.00
2023-02-25T04:49:02.637Z,100.00
2023-02-25T04:51:29.538Z,100.00
2023-02-25T04:53:56.284Z,100.00
2023-02-25T04:56:23.258Z,100.00
2023-02-25T04:58:50.089Z,100.00
2023-02-25T05:01:16.717Z,100.00
2023-02-25T05:03:43.562Z,100.00
2023-02-25T05:06:10.457Z,100.00
2023-02-25T05:08:37.155Z,100.00
2023-02-25T05:11:03.868Z,100.00
2023-02-25T05:13:30.591Z,100.00
2023-02-25T05:16:07.276Z,100.00
2023-02-25T05:18:36.130Z,100.00
2023-02-25T05:21:02.870Z,100.00
2023-02-25T05:23:29.458Z,100.00
2023-02-25T05:25:58.713Z,100.00
2023-02-25T05:28:25.495Z,100.00
2023-02-25T05:30:53.723Z,100.00
2023-02-25T05:33:20.639Z,100.00
2023-02-25T05:35:47.144Z,100.00
2023-02-25T05:38:13.680Z,100.00
2023-02-25T05:40:40.350Z,100.00
2023-02-25T05:43:07.047Z,100.00
2023-02-25T05:45:33.808Z,100.00
2023-02-25T05:48:00.680Z,100.00
2023-02-25T05:50:28.628Z,100.00
2023-02-25T05:52:55.569Z,100.00
2023-02-25T05:55:22.279Z,100.00
2023-02-25T05:57:49.119Z,100.00
2023-02-25T06:00:16.159Z,100.00
2023-02-25T06:02:44.588Z,100.00
2023-02-25T06:05:11.502Z,100.00
2023-02-25T06:07:38.065Z,100.00
2023-02-25T06:10:05.000Z,100.00
2023-02-25T06:12:32.295Z,100.00
2023-02-25T06:14:59.205Z,100.00
2023-02-25T06:17:25.919Z,100.00
2023-02-25T06:19:52.959Z,100.00
2023-02-25T06:22:20.072Z,100.00
2023-02-25T06:24:46.866Z,100.00
2023-02-25T06:27:14.100Z,100.00
2023-02-25T06:29:42.019Z,100.00
2023-02-25T06:32:09.466Z,100.00
2023-02-25T06:34:36.188Z,100.00
2023-02-25T06:37:02.926Z,100.00
2023-02-25T06:39:29.685Z,100.00
2023-02-25T06:41:56.453Z,100.00
2023-02-25T06:44:23.218Z,100.00
2023-02-25T06:46:51.078Z,100.00
2023-02-25T06:49:18.345Z,100.00
2023-02-25T06:51:45.112Z,100.00
2023-02-25T06:54:12.027Z,100.00
2023-02-25T06:56:39.573Z,100.00
2023-02-25T06:59:06.442Z,100.00
2023-02-25T07:01:33.366Z,100.00
2023-02-25T07:04:00.269Z,100.00
2023-02-25T07:06:27.186Z,100.00
2023-02-25T07:08:53.913Z,100.00
2023-02-25T07:11:22.529Z,100.00
2023-02-25T07:13:49.774Z,100.00
2023-02-25T07:16:18.186Z,100.00
2023-02-25T07:18:46.222Z,100.00
2023-02-25T07:21:13.192Z,100.00
2023-02-25T07:23:40.307Z,100.00
2023-02-25T07:26:10.874Z,100.00
2023-02-25T07:28:38.233Z,100.00
2023-02-25T07:31:09.724Z,100.00
2023-02-25T07:33:36.764Z,100.00
2023-02-25T07:36:05.358Z,100.00
2023-02-25T07:38:32.905Z,100.00
2023-02-25T07:41:07.222Z,100.00
2023-02-25T07:43:35.173Z,100.00
2023-02-25T07:46:02.279Z,100.00
2023-02-25T07:48:29.390Z,100.00
2023-02-25T07:50:56.485Z,100.00
2023-02-25T07:53:23.515Z,100.00
2023-02-25T07:55:50.832Z,100.00
2023-02-25T07:58:17.684Z,100.00
2023-02-25T08:00:46.023Z,100.00
2023-02-25T08:03:12.674Z,100.00
2023-02-25T08:05:39.441Z,100.00
2023-02-25T08:08:06.292Z,100.00
2023-02-25T08:10:33.093Z,100.00
2023-02-25T08:12:59.916Z,100.00
2023-02-25T08:15:26.691Z,100.00
2023-02-25T08:17:56.053Z,100.00
2023-02-25T08:20:22.815Z,100.00
2023-02-25T08:22:50.816Z,100.00
2023-02-25T08:25:17.907Z,100.00
2023-02-25T08:27:45.828Z,100.00
2023-02-25T08:30:12.890Z,100.00
2023-02-25T08:32:40.052Z,100.00
2023-02-25T08:35:06.852Z,100.00
2023-02-25T08:37:34.007Z,100.00
2023-02-25T08:40:00.869Z,100.00
2023-02-25T08:42:29.452Z,100.00
2023-02-25T08:44:56.272Z,100.00
2023-02-25T08:47:22.842Z,100.00
2023-02-25T08:49:49.713Z,100.00
2023-02-25T08:52:16.464Z,100.00
2023-02-25T08:54:43.944Z,100.00
2023-02-25T08:57:10.659Z,100.00
2023-02-25T08:59:38.069Z,100.00
2023-02-25T09:02:07.835Z,100.00
2023-02-25T09:04:34.972Z,100.00
2023-02-25T09:07:02.533Z,100.00
2023-02-25T09:09:29.375Z,100.00
2023-02-25T09:11:57.698Z,100.00
2023-02-25T09:14:24.585Z,100.00
2023-02-25T09:16:51.533Z,100.00
2023-02-25T09:19:18.691Z,100.00
2023-02-25T09:21:48.610Z,100.00
2023-02-25T09:24:15.970Z,100.00
2023-02-25T09:26:42.710Z,100.00
2023-02-25T09:29:09.380Z,100.00
2023-02-25T09:31:37.608Z,100.00
2023-02-25T09:34:06.531Z,100.00
2023-02-25T09:36:33.270Z,100.00
2023-02-25T09:39:00.284Z,100.00
2023-02-25T09:41:32.493Z,100.00
2023-02-25T09:44:13.875Z,100.00
2023-02-25T09:46:46.217Z,100.00
2023-02-25T09:49:19.516Z,100.00
2023-02-25T09:51:51.851Z,100.00
2023-02-25T09:54:24.301Z,100.00
2023-02-25T09:57:03.857Z,100.00
2023-02-25T09:59:31.746Z,100.00
2023-02-25T10:02:20.480Z,100.00
2023-02-25T10:04:53.001Z,100.00
2023-02-25T10:07:23.052Z,100.00
2023-02-25T10:09:53.092Z,100.00
2023-02-25T10:12:35.650Z,100.00
2023-02-25T10:15:06.874Z,100.00
2023-02-25T10:17:38.283Z,100.00
2023-02-25T10:20:24.302Z,100.00
2023-02-25T10:23:07.060Z,100.00
2023-02-25T10:25:35.239Z,100.00
2023-02-25T10:28:03.068Z,100.00
2023-02-25T10:36:32.957Z,100.00
2023-02-25T10:39:09.595Z,100.00
2023-02-25T10:44:17.410Z,100.00
2023-02-25T10:46:55.367Z,100.00
2023-02-25T10:58:01.272Z,100.00
2023-02-25T11:06:09.159Z,100.00
2023-02-25T11:08:37.303Z,100.00
2023-02-25T11:11:24.760Z,100.00
2023-02-25T11:19:26.648Z,100.00
2023-02-25T11:21:56.074Z,100.00
2023-02-25T11:24:29.420Z,100.00
2023-02-25T11:27:01.549Z,100.00
2023-02-25T11:29:42.386Z,100.00
2023-02-25T11:32:13.466Z,100.00
2023-02-25T11:34:46.352Z,100.00
2023-02-25T11:39:59.792Z,100.00
2023-02-25T11:42:28.010Z,100.00
2023-02-25T11:45:01.964Z,100.00
2023-02-25T11:47:34.577Z,100.00
2023-02-25T11:50:01.266Z,100.00
2023-02-25T11:52:32.016Z,100.00
2023-02-25T11:54:59.066Z,100.00
2023-02-25T11:57:34.113Z,100.00
2023-02-25T12:00:07.353Z,100.00
2023-02-25T12:02:37.060Z,100.00
2023-02-25T12:05:06.717Z,100.00
2023-02-25T12:08:13.996Z,100.00
2023-02-25T12:10:59.333Z,100.00
2023-02-25T12:13:34.203Z,100.00
2023-02-25T12:16:00.924Z,100.00
2023-02-25T12:18:27.657Z,100.00
2023-02-25T12:21:10.141Z,100.00
2023-02-25T12:24:20.136Z,100.00
2023-02-25T12:27:05.514Z,100.00
2023-02-25T12:29:32.388Z,100.00
2023-02-25T12:32:08.813Z,100.00
2023-02-25T12:34:40.427Z,100.00
2023-02-25T12:37:19.321Z,100.00
2023-02-25T12:40:05.082Z,100.00
2023-02-25T12:42:38.271Z,100.00
2023-02-25T12:45:17.146Z,100.00
2023-02-25T12:47:50.055Z,100.00
2023-02-25T12:50:19.928Z,100.00
2023-02-25T12:52:49.622Z,100.00
2023-02-25T12:55:23.640Z,100.00
2023-02-25T12:57:56.590Z,84.49
2023-02-25T13:00:26.166Z,97.04
2023-02-25T13:03:25.197Z,100.00
2023-02-25T13:05:57.656Z,100.00
2023-02-25T13:08:39.818Z,100.00
2023-02-25T13:11:22.384Z,100.00
2023-02-25T13:13:55.296Z,85.65
2023-02-25T13:16:33.406Z,94.72
2023-02-25T13:19:05.993Z,99.87
2023-02-25T13:21:35.535Z,98.31
2023-02-25T13:24:05.112Z,100.00
2023-02-25T13:26:50.467Z,100.00
2023-02-25T13:29:23.739Z,89.52
2023-02-25T13:32:09.282Z,70.22
2023-02-25T13:34:42.170Z,61.37
2023-02-25T13:37:11.643Z,75.81
2023-02-25T13:39:54.432Z,82.07
2023-02-25T13:42:29.856Z,84.11
2023-02-25T13:44:56.294Z,89.79
2023-02-25T13:47:32.169Z,86.78
2023-02-25T13:50:04.295Z,96.87
2023-02-25T13:52:51.027Z,85.94
2023-02-25T13:55:37.290Z,75.92
2023-02-25T13:58:27.141Z,86.58
2023-02-25T14:00:56.087Z,80.31
2023-02-25T14:03:25.776Z,79.95
2023-02-25T14:05:58.869Z,76.44
2023-02-25T14:08:51.901Z,80.27
2023-02-25T14:11:18.401Z,81.12
2023-02-25T14:14:03.884Z,81.85
2023-02-25T14:16:40.885Z,81.94
2023-02-25T14:19:26.893Z,82.42
2023-02-25T14:21:59.896Z,81.78
2023-02-25T14:24:29.529Z,85.87
2023-02-25T14:27:14.895Z,74.79
2023-02-25T14:30:00.176Z,68.13
2023-02-25T14:32:49.476Z,67.44
2023-02-25T14:35:29.470Z,66.23
2023-02-25T14:38:15.833Z,68.32
2023-02-25T14:41:02.586Z,56.33
2023-02-25T14:43:30.580Z,53.65
2023-02-25T14:45:57.181Z,54.93
2023-02-25T14:48:39.251Z,63.73
2023-02-25T14:51:11.954Z,69.05
2023-02-25T14:53:45.533Z,76.02
2023-02-25T14:56:46.277Z,74.89
2023-02-25T14:59:31.745Z,77.12
2023-02-25T15:02:11.226Z,80.64
2023-02-25T15:04:42.202Z,83.99
2023-02-25T15:07:17.894Z,86.32
2023-02-25T15:10:05.552Z,86.23
2023-02-25T15:12:32.319Z,85.37
2023-02-25T15:15:04.844Z,82.59
2023-02-25T15:17:31.628Z,79.09
2023-02-25T15:20:20.255Z,88.92
2023-02-25T15:23:04.247Z,86.33
2023-02-25T15:25:40.290Z,80.89
2023-02-25T15:28:25.635Z,83.94
2023-02-25T15:31:03.768Z,85.19
2023-02-25T15:33:37.428Z,84.75
2023-02-25T15:36:16.276Z,86.99
2023-02-25T15:38:55.569Z,86.18
2023-02-25T15:41:37.917Z,90.60
2023-02-25T15:44:10.711Z,89.59
2023-02-25T15:46:37.306Z,90.22
2023-02-25T15:49:03.960Z,93.52
2023-02-25T15:51:44.351Z,89.38
2023-02-25T15:54:29.617Z,98.28
2023-02-25T15:56:58.248Z,93.20
2023-02-25T15:59:44.879Z,96.41
2023-02-25T16:02:26.970Z,98.55
2023-02-25T16:04:53.965Z,99.45
2023-02-25T16:07:21.505Z,99.22
2023-02-25T16:09:49.951Z,96.42
2023-02-25T16:12:16.614Z,98.04
2023-02-25T16:14:43.293Z,99.73
2023-02-25T16:17:34.359Z,99.34
2023-02-25T16:20:07.181Z,97.01
2023-02-25T16:22:33.754Z,100.00
2023-02-25T16:25:01.931Z,96.95
2023-02-25T16:27:28.617Z,99.95
2023-02-25T16:30:14.366Z,98.04
2023-02-25T16:32:43.909Z,95.84
2023-02-25T16:35:15.347Z,100.00
2023-02-25T16:37:46.490Z,97.77
2023-02-25T16:40:15.102Z,100.00
2023-02-25T16:42:41.637Z,100.00
2023-02-25T16:45:08.449Z,100.00
2023-02-25T16:47:36.828Z,100.00
2023-02-25T16:50:04.442Z,100.00
2023-02-25T16:52:32.268Z,100.00
2023-02-25T16:55:05.482Z,97.44
2023-02-25T17:00:07.337Z,100.00
2023-02-25T17:02:34.294Z,100.00
2023-02-25T17:05:00.914Z,100.00
2023-02-25T17:07:28.270Z,100.00
2023-02-25T17:09:55.916Z,100.00
2023-02-25T17:12:30.794Z,100.00
2023-02-25T17:14:58.554Z,100.00
2023-02-25T17:17:30.004Z,100.00
2023-02-25T17:19:57.116Z,100.00
2023-02-25T17:22:24.156Z,100.00
2023-02-25T17:24:51.399Z,100.00
2023-02-25T17:27:18.386Z,100.00
2023-02-25T17:29:45.476Z,100.00
2023-02-25T17:32:14.404Z,100.00
2023-02-25T17:34:41.125Z,100.00
2023-02-25T17:37:12.820Z,100.00
2023-02-25T17:39:39.880Z,100.00
2023-02-25T17:42:26.925Z,100.00
2023-02-25T17:44:56.797Z,100.00
2023-02-25T17:47:27.182Z,100.00
2023-02-25T17:49:54.501Z,100.00
2023-02-25T17:52:28.471Z,100.00
